Time;durP1;ratioP1;P1;durP2;ratioP2;P2;SDS_P1;SDS_P2;PMS_P1;PMS_P2;Temp;Humidity;BMP_temperature;BMP_pressure;BME280_temperature;BME280_humidity;BME280_pressure;Samples;Min_cycle;Max_cycle;Signal;HPM_P1;HPM_P2
2023/04/14 00:00:44;;;;;;;10.73;2.95;;;;;;;9.30;48.89;100805.72;4951481;28;119786;-79
2023/04/14 00:03:11;;;;;;;10.05;3.03;;;;;;;9.27;49.25;100808.50;4925073;28;118503;-78
2023/04/14 00:05:39;;;;;;;6.47;2.78;;;;;;;9.24;49.16;100806.84;4958684;28;124559;-78
2023/04/14 00:08:06;;;;;;;6.85;2.90;;;;;;;9.22;49.18;100805.19;4941423;28;124999;-78
2023/04/14 00:10:33;;;;;;;8.10;2.75;;;;;;;9.19;49.00;100810.59;4961812;28;118770;-78
2023/04/14 00:13:01;;;;;;;10.18;3.17;;;;;;;9.16;49.30;100803.66;4933132;28;117252;-78
2023/04/14 00:15:28;;;;;;;6.20;2.60;;;;;;;9.12;49.18;100797.63;4930014;28;124437;-78
2023/04/14 00:17:55;;;;;;;6.38;2.65;;;;;;;9.09;49.25;100802.16;4932250;28;122767;-78
2023/04/14 00:20:22;;;;;;;9.40;2.75;;;;;;;9.05;48.97;100800.56;4962457;28;118456;-79
2023/04/14 00:22:49;;;;;;;8.95;3.00;;;;;;;9.03;49.16;100802.41;4946338;28;119140;-78
2023/04/14 00:25:17;;;;;;;9.40;2.85;;;;;;;9.00;48.93;100803.38;4948353;28;124540;-78
2023/04/14 00:27:44;;;;;;;6.70;2.50;;;;;;;8.97;49.29;100803.50;4944373;28;122742;-78
2023/04/14 00:30:11;;;;;;;9.13;2.78;;;;;;;8.93;48.98;100801.91;4932028;28;120498;-78
2023/04/14 00:32:38;;;;;;;4.53;2.22;;;;;;;8.89;49.19;100800.28;4921769;28;119052;-78
2023/04/14 00:35:06;;;;;;;6.70;2.53;;;;;;;8.87;49.41;100802.13;4943215;28;123309;-78
2023/04/14 00:37:33;;;;;;;11.43;2.90;;;;;;;8.85;49.29;100803.97;4928537;28;123164;-78
2023/04/14 00:40:00;;;;;;;7.47;2.67;;;;;;;8.83;49.26;100811.09;4929105;28;118556;-78
2023/04/14 00:42:27;;;;;;;6.05;2.50;;;;;;;8.82;49.49;100804.13;4924520;28;118534;-78
2023/04/14 00:44:54;;;;;;;6.68;2.33;;;;;;;8.82;49.52;100809.41;4945015;28;123970;-78
2023/04/14 00:47:22;;;;;;;8.65;2.50;;;;;;;8.82;49.34;100812.03;4943791;28;122915;-78
2023/04/14 00:49:50;;;;;;;6.65;2.50;;;;;;;8.82;49.60;100819.97;4908274;28;118974;-78
2023/04/14 00:52:17;;;;;;;5.20;2.58;;;;;;;8.82;49.62;100814.69;4929799;28;118683;-78
2023/04/14 00:54:45;;;;;;;6.18;2.55;;;;;;;8.83;49.54;100819.03;4928238;28;123940;-78
2023/04/14 00:57:12;;;;;;;7.40;2.50;;;;;;;8.83;49.35;100816.38;4943114;28;123873;-78
2023/04/14 00:59:39;;;;;;;7.78;2.40;;;;;;;8.84;49.84;100828.69;4942486;28;118973;-78
2023/04/14 01:02:07;;;;;;;7.47;2.47;;;;;;;8.84;49.79;100828.69;4924760;28;119392;-78
2023/04/14 01:04:34;;;;;;;5.22;2.45;;;;;;;8.83;49.85;100837.50;4923044;28;124007;-78
2023/04/14 01:07:21;;;;;;;;;;;;;;;8.81;49.21;100836.72;4923073;28;123494;-78
2023/04/14 01:09:49;;;;;;;6.85;2.60;;;;;;;8.80;49.30;100838.50;4945582;28;120421;-78
2023/04/14 01:12:28;;;;;;;7.78;2.67;;;;;;;8.79;49.25;100830.63;4930340;28;117768;-79
2023/04/14 01:15:28;;;;;;;5.97;2.58;;;;;;;8.73;49.31;100840.50;4927493;28;123755;-78
2023/04/14 01:18:34;;;;;;;8.07;2.83;;;;;;;8.68;49.67;100829.25;4928073;28;123482;-78
2023/04/14 01:21:05;;;;;;;;;;;;;;;8.66;49.34;100831.06;4907111;28;122708;-78
2023/04/14 01:23:41;;;;;;;8.73;2.50;;;;;;;8.65;49.54;100833.78;4932405;28;120399;-78
2023/04/14 01:26:25;;;;;;;7.55;2.63;;;;;;;8.61;49.49;100833.03;4923539;28;125704;-78
2023/04/14 01:28:58;;;;;;;6.47;2.38;;;;;;;8.60;49.64;100831.31;4923065;28;122422;-78
2023/04/14 01:31:43;;;;;;;6.68;2.20;;;;;;;8.58;49.74;100828.72;4945558;28;119003;-78
2023/04/14 01:34:54;;;;;;;5.75;2.42;;;;;;;8.57;49.91;100831.44;4925785;28;118925;-78
2023/04/14 01:37:38;;;;;;;8.63;2.63;;;;;;;8.55;49.84;100839.41;4884131;28;122851;-78
2023/04/14 01:40:11;;;;;;;5.15;2.20;;;;;;;8.53;49.55;100835.97;4944064;28;122969;-78
2023/04/14 01:42:45;;;;;;;5.68;2.65;;;;;;;8.52;49.92;100838.66;4941294;28;119260;-78
2023/04/14 01:45:19;;;;;;;7.45;2.70;;;;;;;8.51;49.57;100842.19;4910593;28;118602;-78
2023/04/14 01:47:49;;;;;;;9.68;2.90;;;;;;;8.50;49.73;100835.22;4927219;28;123721;-77
2023/04/14 01:50:19;;;;;;;5.72;2.67;;;;;;;8.50;50.14;100840.50;4926533;28;124021;-78
2023/04/14 01:52:52;;;;;;;7.53;2.50;;;;;;;8.50;50.03;100843.13;4942969;28;119808;-78
2023/04/14 01:55:22;;;;;;;6.25;2.38;;;;;;;8.50;49.67;100840.50;4945364;28;117014;-78
2023/04/14 01:57:53;;;;;;;6.97;2.60;;;;;;;8.51;49.88;100839.56;4947180;28;122046;-78
2023/04/14 02:00:21;;;;;;;8.80;2.70;;;;;;;8.50;49.98;100845.78;4927606;28;123518;-78
2023/04/14 02:02:53;;;;;;;5.97;2.65;;;;;;;8.49;50.16;100849.31;4946142;28;119513;-78
2023/04/14 02:05:22;;;;;;;3.95;2.50;;;;;;;8.47;49.78;100859.06;4929818;28;118367;-78
2023/04/14 02:07:52;;;;;;;5.88;2.50;;;;;;;8.37;49.66;100862.00;4928691;28;122959;-77
2023/04/14 02:10:20;;;;;;;6.30;2.70;;;;;;;8.27;49.97;100850.06;4946124;28;124609;-78
2023/04/14 02:12:49;;;;;;;6.82;2.55;;;;;;;8.17;49.74;100859.22;4913283;28;119790;-78
2023/04/14 02:15:19;;;;;;;6.40;2.53;;;;;;;8.11;49.91;100862.06;4947101;28;120356;-77
2023/04/14 02:17:48;;;;;;;5.35;2.40;;;;;;;8.06;50.04;100871.91;4927324;28;122369;-77
2023/04/14 02:20:15;;;;;;;6.65;2.60;;;;;;;8.02;50.35;100870.28;4909073;28;122926;-78
2023/04/14 02:22:43;;;;;;;10.38;3.00;;;;;;;7.97;50.14;100879.22;4949546;28;120123;-78
2023/04/14 02:25:10;;;;;;;8.52;2.97;;;;;;;7.93;50.47;100869.69;4945742;28;118321;-77
2023/04/14 02:27:51;;;;;;;6.90;2.63;;;;;;;7.90;50.17;100872.44;4928940;28;125066;-78
2023/04/14 02:30:23;;;;;;;7.05;2.78;;;;;;;7.86;50.60;100886.63;4947010;28;123618;-78
2023/04/14 02:33:00;;;;;;;8.18;2.72;;;;;;;7.84;50.40;100883.19;4945835;28;119672;-78
2023/04/14 02:35:38;;;;;;;5.88;2.75;;;;;;;7.81;50.80;100883.28;4930090;28;116435;-78
2023/04/14 02:38:43;;;;;;;7.50;2.60;;;;;;;7.77;50.59;100886.94;4943156;28;124008;-78
2023/04/14 02:41:19;;;;;;;6.32;2.65;;;;;;;7.72;50.22;100889.72;4928266;28;124742;-77
2023/04/14 02:43:59;;;;;;;7.57;3.05;;;;;;;7.70;50.65;100885.41;4943558;28;120715;-78
2023/04/14 02:46:34;;;;;;;7.35;2.78;;;;;;;7.66;50.60;100889.06;4946107;28;118284;-78
2023/04/14 02:49:05;;;;;;;7.18;2.60;;;;;;;7.66;50.79;100883.78;4929378;28;123251;-78
2023/04/14 02:51:38;;;;;;;8.70;3.10;;;;;;;7.64;50.95;100889.09;4944621;28;125962;-78
2023/04/14 02:54:05;;;;;;;6.53;2.95;;;;;;;7.65;50.69;100892.59;4927954;28;118607;-78
2023/04/14 02:56:45;;;;;;;8.13;2.90;;;;;;;7.65;50.62;100887.31;4941937;28;119142;-78
2023/04/14 02:59:12;;;;;;;9.15;3.13;;;;;;;7.64;50.73;100890.88;4927654;28;123588;-78
2023/04/14 03:01:52;;;;;;;9.10;3.10;;;;;;;7.62;51.13;100895.34;4924794;28;123534;-78
2023/04/14 03:04:21;;;;;;;9.35;3.20;;;;;;;7.59;50.77;100899.81;4942182;28;119642;-78
2023/04/14 03:06:51;;;;;;;10.18;3.25;;;;;;;7.58;50.85;100895.44;4927593;28;119626;-78
2023/04/14 03:09:20;;;;;;;9.05;3.30;;;;;;;7.56;50.83;100893.75;4928278;28;124754;-77
2023/04/14 03:11:49;;;;;;;6.95;2.80;;;;;;;7.54;50.87;100901.72;4927741;28;123386;-78
2023/04/14 03:14:18;;;;;;;6.90;3.13;;;;;;;7.54;51.28;100900.84;4930147;28;118953;-78
2023/04/14 03:16:47;;;;;;;7.35;2.55;;;;;;;7.54;51.32;100890.31;4930326;28;118184;-78
2023/04/14 03:19:15;;;;;;;7.00;2.83;;;;;;;7.53;51.11;100889.44;4944692;28;123076;-78
2023/04/14 03:21:45;;;;;;;8.27;2.88;;;;;;;7.53;51.05;100889.44;4944743;28;125698;-78
2023/04/14 03:24:16;;;;;;;6.60;2.78;;;;;;;7.53;51.50;100886.78;4943250;28;119513;-78
2023/04/14 03:26:47;;;;;;;9.30;3.10;;;;;;;7.51;51.28;100885.97;4925426;28;120237;-78
2023/04/14 03:29:18;;;;;;;6.90;3.05;;;;;;;7.52;51.26;100892.13;4926645;28;124042;-78
2023/04/14 03:31:46;;;;;;;8.15;3.15;;;;;;;7.50;51.45;100883.41;4941535;28;123171;-78
2023/04/14 03:34:16;;;;;;;8.15;2.55;;;;;;;7.48;51.50;100891.38;4915689;28;118488;-77
2023/04/14 03:36:51;;;;;;;5.97;2.85;;;;;;;7.45;51.09;100888.81;4943459;28;118440;-78
2023/04/14 03:39:21;;;;;;;8.30;2.88;;;;;;;7.43;51.37;100893.28;4923338;28;124253;-78
2023/04/14 03:41:50;;;;;;;7.00;2.80;;;;;;;7.41;51.37;100895.97;4924327;28;123081;-78
2023/04/14 03:44:21;;;;;;;8.40;3.17;;;;;;;7.40;51.32;100896.00;4941562;28;118711;-78
2023/04/14 03:46:50;;;;;;;11.93;2.85;;;;;;;7.38;51.46;100888.16;4930452;28;118453;-78
2023/04/14 03:49:20;;;;;;;8.73;3.00;;;;;;;7.36;51.75;100891.75;4945318;28;124048;-78
2023/04/14 03:51:52;;;;;;;7.97;2.88;;;;;;;7.36;51.68;100897.88;4923807;28;124561;-78
2023/04/14 03:54:23;;;;;;;7.30;3.10;;;;;;;7.34;51.84;100893.56;4928905;28;122679;-78
2023/04/14 03:56:54;;;;;;;6.85;2.67;;;;;;;7.34;51.92;100898.84;4926836;28;118704;-78
2023/04/14 03:59:27;;;;;;;7.90;3.05;;;;;;;7.33;51.84;100890.06;4947611;28;123191;-78
2023/04/14 04:01:55;;;;;;;8.55;3.13;;;;;;;7.33;51.91;100897.13;4927160;28;123184;-78
2023/04/14 04:04:23;;;;;;;10.35;3.25;;;;;;;7.34;52.00;100902.31;4925609;28;118661;-78
2023/04/14 04:06:52;;;;;;;7.07;2.85;;;;;;;7.35;51.93;100901.41;4942249;28;118511;-78
2023/04/14 04:09:23;;;;;;;9.70;2.90;;;;;;;7.36;52.10;100897.00;4928082;28;124978;-78
2023/04/14 04:11:51;;;;;;;6.93;2.78;;;;;;;7.38;52.33;100905.72;4928397;28;123214;-78
2023/04/14 04:14:21;;;;;;;6.97;2.80;;;;;;;7.39;51.99;100907.47;4943713;28;119045;-78
2023/04/14 04:16:52;;;;;;;6.30;2.72;;;;;;;7.41;52.10;100921.44;4922722;28;119754;-78
2023/04/14 04:19:21;;;;;;;10.70;3.28;;;;;;;7.41;51.98;100916.19;4943733;28;126181;-78
2023/04/14 04:21:52;;;;;;;6.75;2.70;;;;;;;7.42;52.25;100917.88;4938669;28;123321;-78
2023/04/14 04:24:21;;;;;;;6.95;3.35;;;;;;;7.41;52.23;100910.91;4927503;28;120423;-78
2023/04/14 04:26:51;;;;;;;8.40;3.05;;;;;;;7.43;52.21;100909.09;4927925;28;118503;-78
2023/04/14 04:29:21;;;;;;;6.40;2.80;;;;;;;7.43;52.27;100903.81;4926833;28;124390;-78
2023/04/14 04:31:50;;;;;;;7.55;3.22;;;;;;;7.43;52.22;100914.34;4927779;28;123146;-78
2023/04/14 04:34:22;;;;;;;8.02;3.33;;;;;;;7.41;51.91;100908.28;4925765;28;118117;-76
2023/04/14 04:47:29;;;;;;;3.13;1.75;;;;;;;7.35;51.44;100905.84;5046455;27;97137;-73
2023/04/14 04:49:57;;;;;;;4.63;2.08;;;;;;;7.31;51.08;100909.44;5028552;27;106932;-73
2023/04/14 04:52:24;;;;;;;6.40;2.00;;;;;;;7.28;51.34;100904.28;5019459;27;124891;-73
2023/04/14 04:54:52;;;;;;;5.03;2.20;;;;;;;7.27;51.57;100905.19;5018342;28;124038;-73
2023/04/14 04:57:21;;;;;;;5.18;2.17;;;;;;;7.27;51.45;100907.81;5022747;28;106435;-73
2023/04/14 04:59:48;;;;;;;6.40;2.20;;;;;;;7.28;51.57;100909.56;5018944;28;105450;-73
2023/04/14 05:02:15;;;;;;;5.22;1.88;;;;;;;7.27;51.51;100907.81;5021237;28;124263;-73
2023/04/14 05:04:42;;;;;;;5.88;2.30;;;;;;;7.27;51.56;100907.81;5034224;27;124450;-74
2023/04/14 05:07:10;;;;;;;7.10;2.20;;;;;;;7.27;51.32;100907.81;5026235;28;105607;-73
2023/04/14 05:09:37;;;;;;;5.68;2.10;;;;;;;7.28;51.75;100909.56;5022806;27;106986;-73
2023/04/14 05:12:29;;;;;;;7.85;1.90;;;;;;;7.26;51.35;100916.66;5017548;28;124700;-73
2023/04/14 05:14:57;;;;;;;4.55;1.73;;;;;;;7.24;51.32;100914.06;5021765;27;124213;-73
2023/04/14 05:17:25;;;;;;;7.03;2.20;;;;;;;7.24;51.37;100918.47;5020937;28;107309;-73
2023/04/14 05:19:53;;;;;;;5.80;2.03;;;;;;;7.18;51.47;100912.47;5020283;28;107710;-74
2023/04/14 05:22:21;;;;;;;6.43;1.80;;;;;;;7.16;51.37;100906.38;5022205;28;124518;-71
2023/04/14 05:24:49;;;;;;;5.20;2.47;;;;;;;7.15;51.51;100915.19;5018795;28;123750;-74
2023/04/14 05:27:16;;;;;;;4.07;1.95;;;;;;;7.13;51.43;100911.75;5018163;28;107442;-73
2023/04/14 05:29:44;;;;;;;4.95;1.95;;;;;;;7.13;51.45;100906.47;5020175;28;107620;-74
2023/04/14 05:32:13;;;;;;;5.25;2.45;;;;;;;7.13;51.69;100906.47;5023188;27;123937;-72
2023/04/14 05:34:40;;;;;;;4.30;2.20;;;;;;;7.16;51.62;100916.94;5027702;27;123134;-73
2023/04/14 05:37:08;;;;;;;9.00;2.58;;;;;;;7.15;51.72;100920.44;5022023;28;107621;-72
2023/04/14 05:39:35;;;;;;;6.88;2.47;;;;;;;7.16;51.81;100916.06;5020461;28;107472;-73
2023/04/14 05:42:02;;;;;;;6.32;2.15;;;;;;;7.17;51.92;100913.38;5031705;27;124333;-72
2023/04/14 05:44:30;;;;;;;8.32;2.70;;;;;;;7.18;52.20;100920.38;5023625;27;123490;-73
2023/04/14 05:46:57;;;;;;;9.27;2.63;;;;;;;7.22;51.77;100927.28;5020403;28;108747;-73
2023/04/14 05:49:24;;;;;;;6.88;2.47;;;;;;;7.25;52.00;100926.31;5017419;28;106641;-73
2023/04/14 05:51:54;;;;;;;6.55;2.53;;;;;;;7.26;52.49;100928.03;5014579;28;124041;-73
2023/04/14 05:54:23;;;;;;;6.50;2.35;;;;;;;7.30;52.21;100939.34;5013302;28;123922;-74
2023/04/14 05:56:50;;;;;;;7.05;2.13;;;;;;;7.33;52.39;100932.22;5004883;28;107413;-74
2023/04/14 05:59:17;;;;;;;9.30;2.40;;;;;;;7.37;52.36;100930.38;5012191;28;107486;-73
2023/04/14 06:01:44;;;;;;;4.72;2.53;;;;;;;7.44;52.68;100937.19;5008020;28;124002;-73
2023/04/14 06:04:12;;;;;;;8.02;2.60;;;;;;;7.51;52.57;100933.41;4991371;28;122828;-73
2023/04/14 06:06:39;;;;;;;7.75;2.13;;;;;;;7.57;52.84;100927.09;5009555;28;107444;-73
2023/04/14 06:09:06;;;;;;;7.00;2.88;;;;;;;7.64;52.58;100923.38;5008845;28;108151;-73
2023/04/14 06:11:34;;;;;;;8.68;2.75;;;;;;;7.72;52.53;100920.47;5007170;28;126276;-73
2023/04/14 06:14:04;;;;;;;6.82;2.67;;;;;;;7.81;52.43;100925.47;5011237;28;123556;-73
2023/04/14 06:16:31;;;;;;;8.85;2.65;;;;;;;7.90;52.50;100917.25;5002253;28;107593;-73
2023/04/14 06:18:58;;;;;;;7.97;2.60;;;;;;;8.02;52.81;100912.50;5008960;28;106989;-73
2023/04/14 06:21:26;;;;;;;9.32;2.83;;;;;;;8.10;52.77;100911.34;5006258;28;124455;-73
2023/04/14 06:23:53;;;;;;;7.57;2.70;;;;;;;8.21;52.76;100918.84;5005982;28;124189;-72
2023/04/14 06:26:21;;;;;;;7.97;2.72;;;;;;;8.31;52.92;100915.00;5008448;28;107461;-73
2023/04/14 06:28:48;;;;;;;6.97;2.53;;;;;;;8.43;52.96;100907.63;5005573;28;107046;-73
2023/04/14 06:31:15;;;;;;;8.07;2.80;;;;;;;8.55;52.76;100907.16;5008594;28;124008;-73
2023/04/14 06:33:42;;;;;;;9.32;2.80;;;;;;;8.67;53.06;100906.75;5008401;28;124357;-73
2023/04/14 06:36:10;;;;;;;9.10;3.10;;;;;;;8.83;53.07;100900.88;5005309;28;107847;-73
2023/04/14 06:38:37;;;;;;;8.70;2.97;;;;;;;8.96;52.98;100907.44;5010212;28;107013;-72
2023/04/14 06:41:04;;;;;;;9.63;2.95;;;;;;;9.12;53.11;100908.59;5007686;28;125989;-72
2023/04/14 06:43:31;;;;;;;7.28;2.83;;;;;;;9.28;53.18;100908.00;5012977;28;123758;-73
2023/04/14 06:45:59;;;;;;;11.15;2.50;;;;;;;9.44;53.12;100898.56;5002798;28;106677;-73
2023/04/14 06:48:26;;;;;;;7.45;2.60;;;;;;;9.61;53.45;100900.53;5009195;28;106169;-73
2023/04/14 06:50:55;;;;;;;5.32;2.63;;;;;;;9.81;53.24;100907.63;5010808;28;123737;-73
2023/04/14 06:53:22;;;;;;;7.50;2.78;;;;;;;10.01;53.45;100903.34;5009778;28;124116;-72
2023/04/14 06:55:57;;;;;;;6.53;2.33;;;;;;;10.21;53.17;100906.00;5005715;28;107541;-74
2023/04/14 06:58:28;;;;;;;6.70;2.60;;;;;;;10.44;53.45;100906.84;5008004;28;107237;-74
2023/04/14 07:00:57;;;;;;;8.60;2.38;;;;;;;10.66;53.46;100891.72;5003892;28;124357;-72
2023/04/14 07:03:25;;;;;;;8.88;2.72;;;;;;;10.91;53.67;100896.75;5008184;28;123968;-73
2023/04/14 07:06:06;;;;;;;8.73;2.88;;;;;;;11.18;53.16;100892.91;5008159;28;107488;-74
2023/04/14 07:08:34;;;;;;;9.73;3.00;;;;;;;11.42;53.40;100894.41;5023721;27;106680;-73
2023/04/14 07:11:04;;;;;;;6.97;2.58;;;;;;;11.67;53.29;100895.88;5007279;28;124014;-73
2023/04/14 07:13:33;;;;;;;12.15;3.40;;;;;;;11.91;53.01;100887.69;5008119;28;124155;-73
2023/04/14 07:16:01;;;;;;;10.13;3.03;;;;;;;12.13;52.80;100883.00;5005154;28;109123;-73
2023/04/14 07:18:30;;;;;;;9.57;2.92;;;;;;;12.39;53.07;100883.44;5007871;28;107799;-73
2023/04/14 07:20:58;;;;;;;8.00;3.05;;;;;;;12.63;52.75;100887.47;5007141;28;124474;-73
2023/04/14 07:23:27;;;;;;;6.75;2.72;;;;;;;12.85;52.41;100886.34;5005287;28;124048;-73
2023/04/14 07:25:56;;;;;;;6.50;2.53;;;;;;;13.02;51.95;100883.59;5007951;28;107850;-73
2023/04/14 07:28:24;;;;;;;6.07;2.63;;;;;;;13.19;51.68;100884.50;5007869;28;107129;-73
2023/04/14 07:30:52;;;;;;;7.20;2.95;;;;;;;13.34;51.35;100878.34;5003876;28;124360;-73
2023/04/14 07:33:21;;;;;;;8.60;2.88;;;;;;;13.45;51.27;100877.75;5007361;28;123763;-73
2023/04/14 07:35:51;;;;;;;5.82;2.60;;;;;;;13.56;50.98;100882.44;5012072;28;106639;-73
2023/04/14 07:38:31;;;;;;;5.40;3.08;;;;;;;13.65;50.75;100871.28;4999774;28;107775;-73
2023/04/14 07:41:02;;;;;;;5.47;2.53;;;;;;;13.76;50.79;100868.00;5007973;28;127044;-73
2023/04/14 07:43:39;;;;;;;5.25;2.40;;;;;;;13.90;50.64;100875.16;5010063;28;123361;-72
2023/04/14 07:46:07;;;;;;;9.18;2.90;;;;;;;14.01;50.34;100862.09;5010501;28;107789;-72
2023/04/14 07:48:35;;;;;;;9.93;2.88;;;;;;;14.10;50.34;100861.53;5009011;28;107643;-73
2023/04/14 07:51:07;;;;;;;6.63;2.60;;;;;;;14.23;50.16;100861.66;5001436;28;123952;-73
2023/04/14 07:53:39;;;;;;;7.95;2.83;;;;;;;14.36;50.12;100867.13;5022240;28;123786;-72
2023/04/14 07:56:06;;;;;;;5.85;2.55;;;;;;;14.48;49.70;100861.03;5011425;28;106630;-72
2023/04/14 07:58:34;;;;;;;6.00;2.45;;;;;;;14.55;49.57;100857.03;5010162;28;106494;-73
2023/04/14 08:01:02;;;;;;;8.13;2.67;;;;;;;14.62;49.33;100854.03;5002591;28;124126;-72
2023/04/14 08:03:30;;;;;;;5.88;2.53;;;;;;;14.72;49.43;100857.84;5007302;28;124244;-73
2023/04/14 08:05:58;;;;;;;8.30;2.83;;;;;;;14.85;49.26;100853.47;4994749;28;106686;-73
2023/04/14 08:08:27;;;;;;;8.57;2.53;;;;;;;14.99;48.82;100861.47;5006596;28;107471;-73
2023/04/14 08:10:54;;;;;;;5.57;2.22;;;;;;;15.06;48.51;100863.72;5002899;28;124342;-73
2023/04/14 08:13:21;;;;;;;9.18;2.35;;;;;;;15.12;48.51;100863.31;5002964;28;123266;-73
2023/04/14 08:15:48;;;;;;;8.00;2.25;;;;;;;15.22;48.69;100856.47;4996182;28;106498;-73
2023/04/14 08:18:16;;;;;;;8.43;2.65;;;;;;;15.30;48.24;100848.81;5008927;28;107405;-74
2023/04/14 08:20:44;;;;;;;10.23;2.42;;;;;;;15.38;48.10;100854.50;5001743;28;124226;-73
2023/04/14 08:23:11;;;;;;;6.28;2.28;;;;;;;15.43;47.86;100854.22;5007347;28;124434;-74
2023/04/14 08:25:39;;;;;;;8.52;2.22;;;;;;;15.52;47.96;100863.41;5011221;28;106341;-74
2023/04/14 08:28:06;;;;;;;9.65;2.45;;;;;;;15.64;47.93;100851.94;5004822;28;107639;-74
2023/04/14 08:30:33;;;;;;;5.90;2.33;;;;;;;15.76;47.63;100851.16;5005004;28;123958;-73
2023/04/14 08:33:00;;;;;;;6.75;2.08;;;;;;;15.83;47.33;100851.59;5012325;28;124030;-73
2023/04/14 08:35:28;;;;;;;7.00;2.33;;;;;;;15.89;47.08;100840.50;4997265;28;108492;-73
2023/04/14 08:38:07;;;;;;;6.80;2.40;;;;;;;16.01;47.07;100854.84;5006130;28;107554;-74
2023/04/14 08:40:40;;;;;;;15.05;2.63;;;;;;;16.11;46.85;100850.59;5003409;28;124075;-74
2023/04/14 08:43:09;;;;;;;14.30;2.58;;;;;;;16.22;46.38;100848.97;5006345;28;123752;-73
2023/04/14 08:45:40;;;;;;;6.88;2.20;;;;;;;16.29;46.09;100842.25;5018313;28;106541;-73
2023/04/14 08:48:10;;;;;;;7.05;1.90;;;;;;;16.37;45.98;100850.63;5008109;28;107969;-73
2023/04/14 08:51:13;;;;;;;8.93;2.28;;;;;;;16.46;45.57;100850.00;5004494;28;123825;-74
2023/04/14 08:53:43;;;;;;;6.05;1.98;;;;;;;16.50;45.27;100851.47;5006159;28;123883;-73
2023/04/14 08:56:16;;;;;;;6.25;2.22;;;;;;;16.53;45.22;100856.59;5002661;28;109987;-73
2023/04/14 08:58:45;;;;;;;5.57;1.83;;;;;;;16.59;45.28;100854.47;5005535;28;108874;-73
2023/04/14 09:01:13;;;;;;;6.63;1.80;;;;;;;16.65;45.17;100846.00;5018747;28;122991;-73
2023/04/14 09:03:42;;;;;;;6.63;1.80;;;;;;;16.71;44.89;100842.91;5006412;28;123272;-74
2023/04/14 09:06:11;;;;;;;6.35;1.73;;;;;;;16.80;44.98;100847.59;5001696;28;110400;-74
2023/04/14 09:08:38;;;;;;;4.80;1.83;;;;;;;16.87;44.78;100843.53;5005601;28;109255;-74
2023/04/14 09:11:06;;;;;;;4.85;1.80;;;;;;;16.99;44.59;100846.31;5001000;28;123687;-75
2023/04/14 09:13:33;;;;;;;3.30;1.73;;;;;;;17.06;44.21;100847.56;5008251;28;123619;-73
2023/04/14 09:16:01;;;;;;;5.25;1.73;;;;;;;17.05;43.13;100845.88;5005692;28;109123;-73
2023/04/14 09:18:30;;;;;;;7.43;1.98;;;;;;;17.02;43.61;100840.75;5011527;28;107938;-73
2023/04/14 09:21:01;;;;;;;7.03;2.00;;;;;;;17.07;43.59;100849.31;4999144;28;124063;-74
2023/04/14 09:23:48;;;;;;;5.40;2.08;;;;;;;17.16;43.80;100839.72;5007679;28;122793;-73
2023/04/14 09:26:16;;;;;;;7.00;1.77;;;;;;;17.25;43.37;100825.69;5010101;28;109518;-74
2023/04/14 09:28:43;;;;;;;6.47;1.77;;;;;;;17.35;43.24;100836.56;5012288;28;108510;-73
2023/04/14 09:31:12;;;;;;;4.97;1.88;;;;;;;17.39;43.22;100832.72;5003434;28;123598;-74
2023/04/14 09:33:43;;;;;;;7.28;1.90;;;;;;;17.43;42.68;100828.84;5004238;28;124207;-73
2023/04/14 09:36:37;;;;;;;3.25;1.73;;;;;;;17.44;42.91;100825.16;5007290;28;109159;-75
2023/04/14 09:39:15;;;;;;;3.85;1.67;;;;;;;17.48;42.09;100826.69;5011352;28;109294;-73
2023/04/14 09:41:46;;;;;;;3.95;1.70;;;;;;;17.51;41.98;100821.06;5004302;28;123818;-73
2023/04/14 09:44:13;;;;;;;5.10;1.63;;;;;;;17.55;41.63;100819.88;5009910;28;123522;-73
2023/04/14 09:46:58;;;;;;;4.53;1.25;;;;;;;17.58;42.16;100816.13;5026366;27;108989;-73
2023/04/14 09:49:26;;;;;;;4.57;1.70;;;;;;;17.68;42.14;100828.69;5004687;28;109230;-73
2023/04/14 09:52:00;;;;;;;5.40;1.70;;;;;;;17.77;41.68;100823.63;5009422;28;124100;-71
2023/04/14 09:54:27;;;;;;;8.80;1.75;;;;;;;17.81;41.71;100822.41;5002625;28;123975;-72
2023/04/14 09:56:55;;;;;;;7.18;1.75;;;;;;;17.90;41.77;100811.03;5005811;28;110808;-74
2023/04/14 09:59:36;;;;;;;7.78;1.77;;;;;;;18.01;41.61;100816.44;5014342;28;109529;-71
2023/04/14 10:02:05;;;;;;;4.38;1.30;;;;;;;18.13;41.31;100811.09;5007990;28;123916;-71
2023/04/14 10:04:33;;;;;;;5.07;1.60;;;;;;;18.20;40.79;100817.69;5007003;28;124741;-71
2023/04/14 10:07:00;;;;;;;6.07;1.30;;;;;;;18.28;40.64;100812.56;5003670;28;109501;-72
2023/04/14 10:09:29;;;;;;;3.72;1.58;;;;;;;18.38;40.61;100810.88;5022221;28;108105;-71
2023/04/14 10:12:08;;;;;;;5.10;1.50;;;;;;;18.45;40.27;100801.38;5003840;28;124411;-72
2023/04/14 10:14:37;;;;;;;5.55;1.50;;;;;;;18.45;40.09;100806.72;4999654;28;123733;-71
2023/04/14 10:17:06;;;;;;;6.07;1.90;;;;;;;18.41;39.85;100799.06;5007117;28;109684;-71
2023/04/14 10:19:34;;;;;;;8.70;1.83;;;;;;;18.38;39.57;100805.50;5006882;28;109405;-71
2023/04/14 10:22:03;;;;;;;4.80;1.50;;;;;;;18.37;39.72;100787.72;5009842;28;123144;-71
2023/04/14 10:24:31;;;;;;;5.80;1.85;;;;;;;18.38;39.64;100784.06;5009627;28;123781;-71
2023/04/14 10:27:01;;;;;;;6.60;1.67;;;;;;;18.37;39.29;100782.34;5003612;28;108967;-71
2023/04/14 10:29:29;;;;;;;6.38;1.45;;;;;;;18.37;38.99;100771.63;5011222;28;108991;-71
2023/04/14 10:32:04;;;;;;;2.75;1.33;;;;;;;18.34;38.55;100779.06;5011021;28;124750;-71
2023/04/14 10:34:32;;;;;;;6.47;1.30;;;;;;;18.28;38.60;100777.72;5010434;28;123736;-72
2023/04/14 10:37:14;;;;;;;9.05;1.58;;;;;;;18.29;39.04;100779.44;5012802;28;109447;-72
2023/04/14 10:39:42;;;;;;;4.80;1.35;;;;;;;18.36;39.25;100775.28;5012371;28;108502;-71
2023/04/14 10:42:10;;;;;;;3.50;1.27;;;;;;;18.45;38.78;100774.56;5003791;28;123087;-71
2023/04/14 10:44:38;;;;;;;5.28;1.33;;;;;;;18.54;38.74;100766.75;4996097;28;123773;-71
2023/04/14 10:47:06;;;;;;;4.50;1.33;;;;;;;18.63;38.24;100766.03;5006403;28;110680;-73
2023/04/14 10:49:39;;;;;;;6.78;1.30;;;;;;;18.65;38.08;100769.44;5010011;28;109303;-73
2023/04/14 10:52:15;;;;;;;6.75;1.23;;;;;;;18.70;37.85;100756.50;5004031;28;124504;-72
2023/04/14 10:54:52;;;;;;;6.75;1.52;;;;;;;18.75;37.83;100759.66;5009202;28;124296;-73
2023/04/14 10:57:24;;;;;;;4.95;1.38;;;;;;;18.78;37.62;100764.78;5011220;28;108991;-72
2023/04/14 10:59:57;;;;;;;5.45;1.67;;;;;;;18.78;37.26;100754.06;5010514;28;109055;-74
2023/04/14 11:02:28;;;;;;;4.93;1.52;;;;;;;18.78;37.74;100748.69;5010406;28;124456;-72
2023/04/14 11:05:12;;;;;;;5.03;1.42;;;;;;;18.84;37.32;100758.94;5013620;28;123141;-73
2023/04/14 11:07:54;;;;;;;5.68;1.10;;;;;;;18.85;37.00;100752.63;5003753;28;109202;-71
2023/04/14 11:10:22;;;;;;;3.33;1.15;;;;;;;18.89;37.00;100753.19;5010724;28;109309;-72
2023/04/14 11:13:16;;;;;;;6.05;1.42;;;;;;;18.85;36.87;100747.25;5010198;28;124442;-72
2023/04/14 11:16:03;;;;;;;3.70;1.20;;;;;;;18.88;36.94;100742.59;5003191;28;124040;-71
2023/04/14 11:18:44;;;;;;;5.45;1.50;;;;;;;18.93;36.93;100740.38;5010770;28;109180;-72
2023/04/14 11:21:15;;;;;;;4.95;1.50;;;;;;;19.02;37.01;100748.56;4993670;28;109357;-72
2023/04/14 11:23:43;;;;;;;5.57;1.50;;;;;;;19.08;36.62;100749.88;5008729;28;123681;-72
2023/04/14 11:26:12;;;;;;;4.65;1.50;;;;;;;19.08;36.34;100739.16;5009720;28;124072;-72
2023/04/14 11:28:41;;;;;;;4.68;1.50;;;;;;;19.12;36.29;100735.22;4997347;28;109526;-73
2023/04/14 11:31:11;;;;;;;3.35;1.13;;;;;;;19.23;36.57;100743.25;5000661;28;109176;-72
2023/04/14 11:33:40;;;;;;;4.97;1.30;;;;;;;19.38;37.16;100741.09;5013935;28;124083;-72
2023/04/14 11:36:11;;;;;;;5.10;1.60;;;;;;;19.50;36.26;100728.47;5002403;28;124010;-72
2023/04/14 11:38:39;;;;;;;3.88;1.30;;;;;;;19.59;36.18;100738.44;5005403;28;110053;-72
2023/04/14 11:41:08;;;;;;;5.18;1.42;;;;;;;19.65;35.94;100732.53;5006252;28;109522;-72
2023/04/14 11:43:36;;;;;;;5.78;1.30;;;;;;;19.70;35.48;100728.59;5006053;28;124055;-72
2023/04/14 11:46:04;;;;;;;4.88;1.40;;;;;;;19.74;36.28;100724.69;5007235;28;123952;-71
2023/04/14 11:48:32;;;;;;;4.68;1.45;;;;;;;19.79;35.93;100722.47;5010243;28;109917;-72